createdAt,value
2019-05-14T00:00:44.452Z,91.74
2019-05-14T00:11:43.113Z,89.91
2019-05-14T00:22:44.192Z,87.98
2019-05-14T00:33:43.254Z,88.59
2019-05-14T00:44:54.478Z,89.09
2019-05-14T00:55:47.002Z,88.02
2019-05-14T01:06:51.186Z,87.51
2019-05-14T01:17:51.698Z,87.81
2019-05-14T01:28:55.340Z,86.63
2019-05-14T01:39:58.052Z,85.98
2019-05-14T01:50:55.676Z,86.74
2019-05-14T02:02:02.145Z,84.50
2019-05-14T02:13:02.041Z,85.92
2019-05-14T02:24:02.682Z,84.64
2019-05-14T02:35:09.924Z,85.66
2019-05-14T02:46:15.896Z,84.53
2019-05-14T02:57:16.200Z,83.92
2019-05-14T03:08:19.781Z,84.67
2019-05-14T03:19:19.521Z,83.86
2019-05-14T03:30:22.888Z,83.65
2019-05-14T03:41:30.486Z,85.33
2019-05-14T03:52:29.416Z,84.11
2019-05-14T04:03:33.628Z,84.20
2019-05-14T04:14:32.437Z,84.00
2019-05-14T04:25:34.590Z,86.18
2019-05-14T04:36:39.539Z,86.86
2019-05-14T04:47:43.017Z,85.63
2019-05-14T04:58:42.463Z,86.82
2019-05-14T05:09:45.418Z,88.18
2019-05-14T05:20:39.361Z,87.98
2019-05-14T05:31:41.917Z,86.76
2019-05-14T05:42:42.248Z,88.08
2019-05-14T05:53:39.618Z,85.37
2019-05-14T06:04:42.530Z,86.76
2019-05-14T06:15:48.510Z,86.71
2019-05-14T06:26:52.286Z,88.75
2019-05-14T06:37:51.356Z,87.32
2019-05-14T06:48:48.694Z,86.77
2019-05-14T06:59:50.234Z,86.10
2019-05-14T07:10:50.572Z,89.38
2019-05-14T07:21:49.196Z,85.60
2019-05-14T07:32:50.804Z,88.26
2019-05-14T07:43:48.287Z,84.59
2019-05-14T07:54:48.218Z,84.86
2019-05-14T08:05:49.140Z,83.67
2019-05-14T08:16:48.914Z,83.09
2019-05-14T08:27:51.308Z,81.84
2019-05-14T08:38:50.398Z,83.06
2019-05-14T08:49:50.944Z,83.46
2019-05-14T09:00:54.564Z,82.71
2019-05-14T09:11:51.228Z,82.47
2019-05-14T09:22:48.848Z,82.71
2019-05-14T09:33:51.029Z,82.45
2019-05-14T09:44:51.589Z,82.33
2019-05-14T09:55:52.402Z,80.91
2019-05-14T10:06:53.360Z,83.42
2019-05-14T10:17:51.796Z,85.27
2019-05-14T10:28:48.931Z,86.37
2019-05-14T10:39:47.609Z,91.97
2019-05-14T10:50:58.989Z,91.16
2019-05-14T11:01:53.879Z,91.52
2019-05-14T11:12:55.031Z,92.21
2019-05-14T11:23:50.270Z,88.83
2019-05-14T11:34:44.191Z,90.92
2019-05-14T11:45:40.812Z,90.66
2019-05-14T11:56:42.804Z,91.16
2019-05-14T12:07:45.903Z,94.07
2019-05-14T12:18:43.882Z,94.07
2019-05-14T12:29:44.939Z,94.59
2019-05-14T12:40:43.649Z,89.95
2019-05-14T12:51:45.445Z,90.78
2019-05-14T13:02:49.934Z,91.00
2019-05-14T13:13:51.351Z,89.07
2019-05-14T13:24:49.329Z,87.85
2019-05-14T13:35:51.425Z,85.76
2019-05-14T13:46:51.986Z,86.39
2019-05-14T13:57:55.109Z,85.84
2019-05-14T14:08:54.351Z,86.74
2019-05-14T14:19:55.697Z,87.24
2019-05-14T14:30:53.275Z,85.27
2019-05-14T14:41:50.015Z,84.70
2019-05-14T14:52:44.379Z,82.47
2019-05-14T15:03:42.925Z,82.75
2019-05-14T15:14:39.532Z,85.72
2019-05-14T15:25:40.583Z,84.68
2019-05-14T15:36:41.958Z,86.90
2019-05-14T15:47:40.721Z,86.68
2019-05-14T15:58:33.499Z,87.08
2019-05-14T16:09:35.564Z,89.22
2019-05-14T16:20:33.573Z,92.01
2019-05-14T16:31:31.575Z,90.88
2019-05-14T16:42:32.218Z,89.92
2019-05-14T16:53:32.793Z,89.04
2019-05-14T17:04:29.494Z,88.90
2019-05-14T17:15:28.968Z,91.75
2019-05-14T17:26:22.440Z,92.41
2019-05-14T17:37:28.447Z,94.49
2019-05-14T17:48:28.947Z,94.94
2019-05-14T17:59:33.632Z,96.27
2019-05-14T18:10:35.682Z,97.70
2019-05-14T18:21:28.495Z,98.25
2019-05-14T18:32:26.009Z,98.66
2019-05-14T18:43:22.077Z,98.97
2019-05-14T18:54:22.746Z,99.99
2019-05-14T19:05:23.144Z,99.99
2019-05-14T19:16:23.583Z,99.99
2019-05-14T19:27:21.200Z,99.99
2019-05-14T19:38:20.451Z,99.99
2019-05-14T19:49:13.845Z,99.99
2019-05-14T20:00:13.454Z,99.99
2019-05-14T20:11:11.931Z,99.99
2019-05-14T20:22:08.228Z,99.99
2019-05-14T20:33:05.199Z,99.99
2019-05-14T20:44:03.169Z,99.93
2019-05-14T20:54:59.662Z,99.27
2019-05-14T21:05:55.474Z,99.99
2019-05-14T21:16:52.411Z,99.99
2019-05-14T21:27:49.347Z,99.99
2019-05-14T21:38:49.655Z,99.99
2019-05-14T21:49:48.919Z,99.99
2019-05-14T22:00:51.177Z,99.99
2019-05-14T22:11:48.725Z,99.99
2019-05-14T22:22:50.920Z,99.99
2019-05-14T22:33:51.935Z,99.99
2019-05-14T22:44:50.815Z,99.99
2019-05-14T22:55:53.324Z,99.99
2019-05-14T23:06:54.239Z,99.99
2019-05-14T23:17:58.829Z,99.99
2019-05-14T23:28:59.810Z,99.99
2019-05-14T23:40:04.527Z,99.99
2019-05-14T23:51:08.096Z,99.99
